sensor_id;sensor_type;location;lat;lon;timestamp;temperature;humidity
36800;DHT22;22752;51.960;5.886;2022-07-29T00:00:42;17.20;95.70
36800;DHT22;22752;51.960;5.886;2022-07-29T00:03:10;17.20;95.70
36800;DHT22;22752;51.960;5.886;2022-07-29T00:05:38;17.10;95.80
36800;DHT22;22752;51.960;5.886;2022-07-29T00:08:04;17.10;95.90
36800;DHT22;22752;51.960;5.886;2022-07-29T00:10:29;17.10;96.00
36800;DHT22;22752;51.960;5.886;2022-07-29T00:12:55;17.00;96.10
36800;DHT22;22752;51.960;5.886;2022-07-29T00:15:21;17.00;96.10
36800;DHT22;22752;51.960;5.886;2022-07-29T00:17:46;17.00;96.20
36800;DHT22;22752;51.960;5.886;2022-07-29T00:20:12;17.00;96.40
36800;DHT22;22752;51.960;5.886;2022-07-29T00:22:38;16.90;96.40
36800;DHT22;22752;51.960;5.886;2022-07-29T00:25:05;16.90;96.50
36800;DHT22;22752;51.960;5.886;2022-07-29T00:27:31;16.90;96.60
36800;DHT22;22752;51.960;5.886;2022-07-29T00:29:56;16.90;96.70
36800;DHT22;22752;51.960;5.886;2022-07-29T00:32:22;16.90;96.80
36800;DHT22;22752;51.960;5.886;2022-07-29T00:34:47;16.90;96.80
36800;DHT22;22752;51.960;5.886;2022-07-29T00:37:31;16.90;96.80
36800;DHT22;22752;51.960;5.886;2022-07-29T00:39:57;16.90;96.90
36800;DHT22;22752;51.960;5.886;2022-07-29T00:42:23;16.90;96.90
36800;DHT22;22752;51.960;5.886;2022-07-29T00:44:48;16.90;97.00
36800;DHT22;22752;51.960;5.886;2022-07-29T00:47:14;16.80;97.10
36800;DHT22;22752;51.960;5.886;2022-07-29T00:49:41;16.90;97.10
36800;DHT22;22752;51.960;5.886;2022-07-29T00:52:09;16.80;97.10
36800;DHT22;22752;51.960;5.886;2022-07-29T00:54:35;16.80;97.10
36800;DHT22;22752;51.960;5.886;2022-07-29T00:57:01;16.80;97.10
36800;DHT22;22752;51.960;5.886;2022-07-29T00:59:28;16.90;97.20
36800;DHT22;22752;51.960;5.886;2022-07-29T01:01:54;16.90;97.30
36800;DHT22;22752;51.960;5.886;2022-07-29T01:04:21;16.80;97.30
36800;DHT22;22752;51.960;5.886;2022-07-29T01:06:50;16.80;97.30
36800;DHT22;22752;51.960;5.886;2022-07-29T01:09:17;16.80;97.30
36800;DHT22;22752;51.960;5.886;2022-07-29T01:11:45;16.80;97.20
36800;DHT22;22752;51.960;5.886;2022-07-29T01:14:13;16.90;97.30
36800;DHT22;22752;51.960;5.886;2022-07-29T01:16:46;16.90;97.30
36800;DHT22;22752;51.960;5.886;2022-07-29T01:19:48;16.90;97.40
36800;DHT22;22752;51.960;5.886;2022-07-29T01:22:37;16.90;97.40
36800;DHT22;22752;51.960;5.886;2022-07-29T01:30:25;16.80;97.70
36800;DHT22;22752;51.960;5.886;2022-07-29T01:32:59;16.80;97.70
36800;DHT22;22752;51.960;5.886;2022-07-29T01:35:40;16.80;97.80
36800;DHT22;22752;51.960;5.886;2022-07-29T01:38:11;16.80;97.80
36800;DHT22;22752;51.960;5.886;2022-07-29T01:40:45;16.80;97.70
36800;DHT22;22752;51.960;5.886;2022-07-29T01:43:19;16.80;97.80
36800;DHT22;22752;51.960;5.886;2022-07-29T01:45:50;16.80;97.80
36800;DHT22;22752;51.960;5.886;2022-07-29T01:51:07;16.80;97.70
36800;DHT22;22752;51.960;5.886;2022-07-29T01:53:37;16.80;97.70
36800;DHT22;22752;51.960;5.886;2022-07-29T01:56:04;16.70;97.80
36800;DHT22;22752;51.960;5.886;2022-07-29T01:58:32;16.70;98.00
36800;DHT22;22752;51.960;5.886;2022-07-29T02:01:00;16.60;98.30
36800;DHT22;22752;51.960;5.886;2022-07-29T02:03:28;16.60;98.50
36800;DHT22;22752;51.960;5.886;2022-07-29T02:05:55;16.50;98.60
36800;DHT22;22752;51.960;5.886;2022-07-29T02:08:22;16.50;98.90
36800;DHT22;22752;51.960;5.886;2022-07-29T02:10:49;16.50;98.90
36800;DHT22;22752;51.960;5.886;2022-07-29T02:13:16;16.50;99.10
36800;DHT22;22752;51.960;5.886;2022-07-29T02:15:44;16.40;99.20
36800;DHT22;22752;51.960;5.886;2022-07-29T02:18:16;16.40;99.30
36800;DHT22;22752;51.960;5.886;2022-07-29T02:20:47;16.40;99.40
36800;DHT22;22752;51.960;5.886;2022-07-29T02:23:19;16.40;99.50
36800;DHT22;22752;51.960;5.886;2022-07-29T02:25:48;16.30;99.40
36800;DHT22;22752;51.960;5.886;2022-07-29T02:28:16;16.40;99.50
36800;DHT22;22752;51.960;5.886;2022-07-29T02:30:42;16.40;99.60
36800;DHT22;22752;51.960;5.886;2022-07-29T02:33:10;16.30;99.60
36800;DHT22;22752;51.960;5.886;2022-07-29T02:35:39;16.30;99.80
36800;DHT22;22752;51.960;5.886;2022-07-29T02:38:06;16.30;99.90
36800;DHT22;22752;51.960;5.886;2022-07-29T02:40:52;16.30;99.90
36800;DHT22;22752;51.960;5.886;2022-07-29T02:43:19;16.20;99.90
36800;DHT22;22752;51.960;5.886;2022-07-29T02:45:47;16.10;99.90
36800;DHT22;22752;51.960;5.886;2022-07-29T02:48:16;16.00;99.90
36800;DHT22;22752;51.960;5.886;2022-07-29T02:50:53;16.00;99.90
36800;DHT22;22752;51.960;5.886;2022-07-29T02:53:23;15.90;99.90
36800;DHT22;22752;51.960;5.886;2022-07-29T02:55:57;15.80;99.90
36800;DHT22;22752;51.960;5.886;2022-07-29T02:58:42;15.70;99.90
36800;DHT22;22752;51.960;5.886;2022-07-29T03:01:20;15.60;99.90
36800;DHT22;22752;51.960;5.886;2022-07-29T03:03:49;15.50;99.90
36800;DHT22;22752;51.960;5.886;2022-07-29T03:06:16;15.50;99.90
36800;DHT22;22752;51.960;5.886;2022-07-29T03:08:43;15.40;99.90
36800;DHT22;22752;51.960;5.886;2022-07-29T03:11:10;15.40;99.90
36800;DHT22;22752;51.960;5.886;2022-07-29T03:13:37;15.30;99.90
36800;DHT22;22752;51.960;5.886;2022-07-29T03:16:03;15.30;99.90
36800;DHT22;22752;51.960;5.886;2022-07-29T03:18:30;15.20;99.90
36800;DHT22;22752;51.960;5.886;2022-07-29T03:20:56;15.10;99.90
36800;DHT22;22752;51.960;5.886;2022-07-29T03:23:23;14.90;99.90
36800;DHT22;22752;51.960;5.886;2022-07-29T03:25:52;14.90;99.90
36800;DHT22;22752;51.960;5.886;2022-07-29T03:28:18;14.80;99.90
36800;DHT22;22752;51.960;5.886;2022-07-29T03:30:45;14.70;99.90
36800;DHT22;22752;51.960;5.886;2022-07-29T03:33:10;14.60;99.90
36800;DHT22;22752;51.960;5.886;2022-07-29T03:35:36;14.60;99.90
36800;DHT22;22752;51.960;5.886;2022-07-29T03:38:02;14.50;99.90
36800;DHT22;22752;51.960;5.886;2022-07-29T03:40:38;14.40;99.90
36800;DHT22;22752;51.960;5.886;2022-07-29T03:43:06;14.40;99.90
36800;DHT22;22752;51.960;5.886;2022-07-29T03:45:33;14.30;99.90
36800;DHT22;22752;51.960;5.886;2022-07-29T03:48:10;14.30;99.90
36800;DHT22;22752;51.960;5.886;2022-07-29T03:50:37;14.20;99.90
36800;DHT22;22752;51.960;5.886;2022-07-29T03:53:03;14.20;99.90
36800;DHT22;22752;51.960;5.886;2022-07-29T03:55:33;14.10;99.90
36800;DHT22;22752;51.960;5.886;2022-07-29T03:58:02;14.10;99.90
36800;DHT22;22752;51.960;5.886;2022-07-29T04:00:28;14.10;99.90
36800;DHT22;22752;51.960;5.886;2022-07-29T04:02:56;14.10;99.90
36800;DHT22;22752;51.960;5.886;2022-07-29T04:05:22;14.10;99.90
36800;DHT22;22752;51.960;5.886;2022-07-29T04:07:48;14.10;99.90
36800;DHT22;22752;51.960;5.886;2022-07-29T04:10:14;14.10;99.90
36800;DHT22;22752;51.960;5.886;2022-07-29T04:12:44;14.20;99.90
36800;DHT22;22752;51.960;5.886;2022-07-29T04:15:10;14.20;99.90
36800;DHT22;22752;51.960;5.886;2022-07-29T04:17:36;14.20;99.90
36800;DHT22;22752;51.960;5.886;2022-07-29T04:20:02;14.20;99.90
36800;DHT22;22752;51.960;5.886;2022-07-29T04:22:28;14.20;99.90
36800;DHT22;22752;51.960;5.886;2022-07-29T04:24:54;14.30;99.90
36800;DHT22;22752;51.960;5.886;2022-07-29T04:27:19;14.50;99.90
36800;DHT22;22752;51.960;5.886;2022-07-29T04:29:45;14.60;99.90
36800;DHT22;22752;51.960;5.886;2022-07-29T04:32:10;14.60;99.90
36800;DHT22;22752;51.960;5.886;2022-07-29T04:34:36;14.60;99.90
36800;DHT22;22752;51.960;5.886;2022-07-29T04:37:02;14.60;99.90
36800;DHT22;22752;51.960;5.886;2022-07-29T04:39:28;14.60;99.90
36800;DHT22;22752;51.960;5.886;2022-07-29T04:41:53;14.60;99.90
36800;DHT22;22752;51.960;5.886;2022-07-29T04:44:19;14.50;99.90
36800;DHT22;22752;51.960;5.886;2022-07-29T04:46:45;14.50;99.90
36800;DHT22;22752;51.960;5.886;2022-07-29T04:49:10;14.60;99.90
36800;DHT22;22752;51.960;5.886;2022-07-29T04:51:36;14.50;99.90
36800;DHT22;22752;51.960;5.886;2022-07-29T04:54:01;14.60;99.90
36800;DHT22;22752;51.960;5.886;2022-07-29T04:56:27;14.60;99.90
36800;DHT22;22752;51.960;5.886;2022-07-29T04:58:53;14.60;99.90
36800;DHT22;22752;51.960;5.886;2022-07-29T05:01:19;14.60;99.90
36800;DHT22;22752;51.960;5.886;2022-07-29T05:03:45;14.60;99.90
36800;DHT22;22752;51.960;5.886;2022-07-29T05:06:11;14.70;99.90
36800;DHT22;22752;51.960;5.886;2022-07-29T05:08:37;14.70;99.90
36800;DHT22;22752;51.960;5.886;2022-07-29T05:11:03;14.70;99.90
36800;DHT22;22752;51.960;5.886;2022-07-29T05:13:29;14.70;99.90
36800;DHT22;22752;51.960;5.886;2022-07-29T05:15:56;14.70;99.90
36800;DHT22;22752;51.960;5.886;2022-07-29T05:18:24;14.70;99.90
36800;DHT22;22752;51.960;5.886;2022-07-29T05:20:50;14.80;99.90
36800;DHT22;22752;51.960;5.886;2022-07-29T05:23:16;14.70;99.90
36800;DHT22;22752;51.960;5.886;2022-07-29T05:25:41;14.80;99.90
36800;DHT22;22752;51.960;5.886;2022-07-29T05:28:07;14.80;99.90
36800;DHT22;22752;51.960;5.886;2022-07-29T05:30:33;14.80;99.90
36800;DHT22;22752;51.960;5.886;2022-07-29T05:32:58;14.80;99.90
36800;DHT22;22752;51.960;5.886;2022-07-29T05:35:24;14.90;99.90
36800;DHT22;22752;51.960;5.886;2022-07-29T05:37:49;14.90;99.90
36800;DHT22;22752;51.960;5.886;2022-07-29T05:40:15;15.00;99.90
36800;DHT22;22752;51.960;5.886;2022-07-29T05:42:41;15.00;99.90
36800;DHT22;22752;51.960;5.886;2022-07-29T05:45:07;15.00;99.90
36800;DHT22;22752;51.960;5.886;2022-07-29T05:47:33;15.10;99.90
36800;DHT22;22752;51.960;5.886;2022-07-29T05:49:59;15.10;99.90
36800;DHT22;22752;51.960;5.886;2022-07-29T05:52:25;15.10;99.90
36800;DHT22;22752;51.960;5.886;2022-07-29T05:54:50;15.20;99.90
36800;DHT22;22752;51.960;5.886;2022-07-29T05:57:23;15.20;99.90
36800;DHT22;22752;51.960;5.886;2022-07-29T05:59:51;15.30;99.90
36800;DHT22;22752;51.960;5.886;2022-07-29T06:02:17;15.30;99.90
36800;DHT22;22752;51.960;5.886;2022-07-29T06:04:43;15.30;99.90
36800;DHT22;22752;51.960;5.886;2022-07-29T06:07:09;15.40;99.90
36800;DHT22;22752;51.960;5.886;2022-07-29T06:09:35;15.50;99.90
36800;DHT22;22752;51.960;5.886;2022-07-29T06:12:01;15.70;99.90
36800;DHT22;22752;51.960;5.886;2022-07-29T06:14:27;15.90;99.90
36800;DHT22;22752;51.960;5.886;2022-07-29T06:16:53;16.30;99.90
36800;DHT22;22752;51.960;5.886;2022-07-29T06:19:19;16.70;99.90
36800;DHT22;22752;51.960;5.886;2022-07-29T06:21:46;16.70;99.90
36800;DHT22;22752;51.960;5.886;2022-07-29T06:24:12;16.60;99.90
36800;DHT22;22752;51.960;5.886;2022-07-29T06:26:41;16.40;99.90
36800;DHT22;22752;51.960;5.886;2022-07-29T06:29:08;16.40;99.90
36800;DHT22;22752;51.960;5.886;2022-07-29T06:31:34;16.30;99.90
36800;DHT22;22752;51.960;5.886;2022-07-29T06:34:00;16.30;99.90
36800;DHT22;22752;51.960;5.886;2022-07-29T06:36:25;16.30;99.90
36800;DHT22;22752;51.960;5.886;2022-07-29T06:38:51;16.30;99.90
36800;DHT22;22752;51.960;5.886;2022-07-29T06:41:16;16.40;99.90
36800;DHT22;22752;51.960;5.886;2022-07-29T06:43:43;16.40;99.90
36800;DHT22;22752;51.960;5.886;2022-07-29T06:46:12;16.60;99.90
36800;DHT22;22752;51.960;5.886;2022-07-29T06:48:39;16.70;99.90
36800;DHT22;22752;51.960;5.886;2022-07-29T06:51:05;17.00;99.90
36800;DHT22;22752;51.960;5.886;2022-07-29T06:53:32;17.80;99.90
36800;DHT22;22752;51.960;5.886;2022-07-29T06:55:59;19.20;99.90
36800;DHT22;22752;51.960;5.886;2022-07-29T06:58:26;19.80;99.90
36800;DHT22;22752;51.960;5.886;2022-07-29T07:00:52;20.10;99.90
36800;DHT22;22752;51.960;5.886;2022-07-29T07:03:18;19.90;99.90
36800;DHT22;22752;51.960;5.886;2022-07-29T07:05:45;19.70;99.90
36800;DHT22;22752;51.960;5.886;2022-07-29T07:08:12;19.30;99.90
36800;DHT22;22752;51.960;5.886;2022-07-29T07:10:38;19.00;99.90
36800;DHT22;22752;51.960;5.886;2022-07-29T07:13:04;18.80;99.90
36800;DHT22;22752;51.960;5.886;2022-07-29T07:15:30;18.70;99.90
36800;DHT22;22752;51.960;5.886;2022-07-29T07:17:56;18.80;99.90
36800;DHT22;22752;51.960;5.886;2022-07-29T07:20:23;18.90;99.90
36800;DHT22;22752;51.960;5.886;2022-07-29T07:22:48;19.00;99.90
36800;DHT22;22752;51.960;5.886;2022-07-29T07:25:14;19.00;99.90
36800;DHT22;22752;51.960;5.886;2022-07-29T07:27:39;19.10;99.90
36800;DHT22;22752;51.960;5.886;2022-07-29T07:30:07;19.00;99.90
36800;DHT22;22752;51.960;5.886;2022-07-29T07:32:34;19.00;99.90
36800;DHT22;22752;51.960;5.886;2022-07-29T07:34:59;18.90;99.90
36800;DHT22;22752;51.960;5.886;2022-07-29T07:37:25;18.80;99.90
36800;DHT22;22752;51.960;5.886;2022-07-29T07:39:52;18.60;99.90
36800;DHT22;22752;51.960;5.886;2022-07-29T07:42:18;18.50;99.90
36800;DHT22;22752;51.960;5.886;2022-07-29T07:44:44;18.40;99.90
36800;DHT22;22752;51.960;5.886;2022-07-29T07:47:11;18.30;99.90
36800;DHT22;22752;51.960;5.886;2022-07-29T07:49:37;18.30;99.90
36800;DHT22;22752;51.960;5.886;2022-07-29T07:52:04;18.30;99.90
36800;DHT22;22752;51.960;5.886;2022-07-29T07:54:30;18.30;99.90
36800;DHT22;22752;51.960;5.886;2022-07-29T07:56:56;18.20;99.90
36800;DHT22;22752;51.960;5.886;2022-07-29T07:59:22;18.20;99.90
36800;DHT22;22752;51.960;5.886;2022-07-29T08:01:49;18.20;99.90
36800;DHT22;22752;51.960;5.886;2022-07-29T08:04:15;18.20;99.90
36800;DHT22;22752;51.960;5.886;2022-07-29T08:06:41;18.20;99.90
36800;DHT22;22752;51.960;5.886;2022-07-29T08:09:06;18.30;99.90
36800;DHT22;22752;51.960;5.886;2022-07-29T08:11:32;18.30;99.90
36800;DHT22;22752;51.960;5.886;2022-07-29T08:13:58;18.40;99.90
36800;DHT22;22752;51.960;5.886;2022-07-29T08:16:24;18.40;99.90
36800;DHT22;22752;51.960;5.886;2022-07-29T08:18:50;18.40;99.90
36800;DHT22;22752;51.960;5.886;2022-07-29T08:21:16;18.50;99.90
36800;DHT22;22752;51.960;5.886;2022-07-29T08:23:44;18.50;99.90
36800;DHT22;22752;51.960;5.886;2022-07-29T08:26:16;18.60;99.90
36800;DHT22;22752;51.960;5.886;2022-07-29T08:28:43;18.60;99.90
36800;DHT22;22752;51.960;5.886;2022-07-29T08:31:15;18.70;99.90
36800;DHT22;22752;51.960;5.886;2022-07-29T08:33:41;18.70;99.90
36800;DHT22;22752;51.960;5.886;2022-07-29T08:36:07;18.70;99.90
36800;DHT22;22752;51.960;5.886;2022-07-29T08:38:32;18.70;99.90
36800;DHT22;22752;51.960;5.886;2022-07-29T08:41:00;18.70;99.90
36800;DHT22;22752;51.960;5.886;2022-07-29T08:43:28;18.80;99.90
36800;DHT22;22752;51.960;5.886;2022-07-29T08:45:54;18.80;99.90
36800;DHT22;22752;51.960;5.886;2022-07-29T08:48:23;18.80;99.90
36800;DHT22;22752;51.960;5.886;2022-07-29T08:50:53;18.80;99.90
36800;DHT22;22752;51.960;5.886;2022-07-29T08:53:21;18.80;99.90
36800;DHT22;22752;51.960;5.886;2022-07-29T08:55:48;18.90;99.90
36800;DHT22;22752;51.960;5.886;2022-07-29T08:58:15;19.00;99.90
36800;DHT22;22752;51.960;5.886;2022-07-29T09:00:43;19.10;99.90
36800;DHT22;22752;51.960;5.886;2022-07-29T09:03:12;19.20;99.90
36800;DHT22;22752;51.960;5.886;2022-07-29T09:05:42;19.20;99.90
36800;DHT22;22752;51.960;5.886;2022-07-29T09:08:08;19.20;99.90
36800;DHT22;22752;51.960;5.886;2022-07-29T09:10:37;19.20;99.90
36800;DHT22;22752;51.960;5.886;2022-07-29T09:13:03;19.30;99.90
36800;DHT22;22752;51.960;5.886;2022-07-29T09:15:28;19.40;99.90
36800;DHT22;22752;51.960;5.886;2022-07-29T09:17:54;19.40;99.90
36800;DHT22;22752;51.960;5.886;2022-07-29T09:20:22;19.50;99.90
36800;DHT22;22752;51.960;5.886;2022-07-29T09:22:49;19.40;99.90
36800;DHT22;22752;51.960;5.886;2022-07-29T09:25:39;19.40;99.90
36800;DHT22;22752;51.960;5.886;2022-07-29T09:28:14;19.40;99.90
36800;DHT22;22752;51.960;5.886;2022-07-29T09:30:56;19.40;99.90
36800;DHT22;22752;51.960;5.886;2022-07-29T09:33:23;19.30;99.90
36800;DHT22;22752;51.960;5.886;2022-07-29T09:36:08;19.20;99.90
36800;DHT22;22752;51.960;5.886;2022-07-29T09:38:35;19.10;99.90
36800;DHT22;22752;51.960;5.886;2022-07-29T09:41:05;19.00;99.90
36800;DHT22;22752;51.960;5.886;2022-07-29T09:43:31;19.00;99.90
36800;DHT22;22752;51.960;5.886;2022-07-29T09:46:10;19.00;99.90
36800;DHT22;22752;51.960;5.886;2022-07-29T09:48:36;19.00;99.90
36800;DHT22;22752;51.960;5.886;2022-07-29T09:51:02;19.10;99.90
36800;DHT22;22752;51.960;5.886;2022-07-29T09:53:36;19.10;99.90
36800;DHT22;22752;51.960;5.886;2022-07-29T09:56:06;19.20;99.90
36800;DHT22;22752;51.960;5.886;2022-07-29T09:58:32;19.40;99.90
36800;DHT22;22752;51.960;5.886;2022-07-29T10:01:01;19.50;99.90
36800;DHT22;22752;51.960;5.886;2022-07-29T10:03:27;19.80;99.90
36800;DHT22;22752;51.960;5.886;2022-07-29T10:06:10;20.10;99.90
36800;DHT22;22752;51.960;5.886;2022-07-29T10:08:37;20.50;99.90
36800;DHT22;22752;51.960;5.886;2022-07-29T10:11:11;20.80;99.90
36800;DHT22;22752;51.960;5.886;2022-07-29T10:13:36;21.10;99.90
36800;DHT22;22752;51.960;5.886;2022-07-29T10:16:03;21.20;99.90
36800;DHT22;22752;51.960;5.886;2022-07-29T10:18:29;21.30;99.90
36800;DHT22;22752;51.960;5.886;2022-07-29T10:20:55;21.60;99.90
36800;DHT22;22752;51.960;5.886;2022-07-29T10:23:22;21.80;99.90
36800;DHT22;22752;51.960;5.886;2022-07-29T10:25:49;21.90;99.90
36800;DHT22;22752;51.960;5.886;2022-07-29T10:28:15;22.00;99.90
36800;DHT22;22752;51.960;5.886;2022-07-29T10:30:41;22.20;99.90
36800;DHT22;22752;51.960;5.886;2022-07-29T10:36:10;21.80;99.90
36800;DHT22;22752;51.960;5.886;2022-07-29T10:44:22;21.90;99.90
36800;DHT22;22752;51.960;5.886;2022-07-29T10:46:49;22.00;99.90
36800;DHT22;22752;51.960;5.886;2022-07-29T10:49:20;22.10;99.90
36800;DHT22;22752;51.960;5.886;2022-07-29T10:52:05;22.30;99.80
36800;DHT22;22752;51.960;5.886;2022-07-29T10:57:22;22.60;99.30
36800;DHT22;22752;51.960;5.886;2022-07-29T10:59:50;22.60;98.90
36800;DHT22;22752;51.960;5.886;2022-07-29T11:05:11;22.90;99.00
36800;DHT22;22752;51.960;5.886;2022-07-29T11:07:40;22.80;98.80
36800;DHT22;22752;51.960;5.886;2022-07-29T11:15:10;22.50;98.30
36800;DHT22;22752;51.960;5.886;2022-07-29T11:20:31;22.70;98.00
36800;DHT22;22752;51.960;5.886;2022-07-29T11:22:57;22.90;97.60
36800;DHT22;22752;51.960;5.886;2022-07-29T11:25:23;23.00;97.40
36800;DHT22;22752;51.960;5.886;2022-07-29T11:27:49;23.10;97.50
36800;DHT22;22752;51.960;5.886;2022-07-29T11:30:16;23.20;97.40
36800;DHT22;22752;51.960;5.886;2022-07-29T11:32:43;23.30;97.20
36800;DHT22;22752;51.960;5.886;2022-07-29T11:37:42;23.60;96.90
36800;DHT22;22752;51.960;5.886;2022-07-29T11:40:10;23.70;97.10
36800;DHT22;22752;51.960;5.886;2022-07-29T11:42:37;23.80;96.90
36800;DHT22;22752;51.960;5.886;2022-07-29T11:45:04;23.80;96.30
36800;DHT22;22752;51.960;5.886;2022-07-29T11:50:15;23.80;96.40
36800;DHT22;22752;51.960;5.886;2022-07-29T11:52:46;23.80;96.40
36800;DHT22;22752;51.960;5.886;2022-07-29T11:55:17;23.80;96.10
36800;DHT22;22752;51.960;5.886;2022-07-29T11:57:54;23.60;96.40
36800;DHT22;22752;51.960;5.886;2022-07-29T12:00:24;23.60;96.40
36800;DHT22;22752;51.960;5.886;2022-07-29T12:02:50;23.60;96.80
36800;DHT22;22752;51.960;5.886;2022-07-29T12:05:17;23.80;96.60
36800;DHT22;22752;51.960;5.886;2022-07-29T12:07:42;24.10;96.30
36800;DHT22;22752;51.960;5.886;2022-07-29T12:10:08;24.20;96.10
36800;DHT22;22752;51.960;5.886;2022-07-29T12:12:34;24.20;96.00
36800;DHT22;22752;51.960;5.886;2022-07-29T12:15:17;24.20;96.10
36800;DHT22;22752;51.960;5.886;2022-07-29T12:17:46;24.20;96.00
36800;DHT22;22752;51.960;5.886;2022-07-29T12:20:12;24.20;96.10
36800;DHT22;22752;51.960;5.886;2022-07-29T12:22:41;24.20;95.50
36800;DHT22;22752;51.960;5.886;2022-07-29T12:25:13;24.30;95.70
36800;DHT22;22752;51.960;5.886;2022-07-29T12:27:42;24.30;95.30
36800;DHT22;22752;51.960;5.886;2022-07-29T12:30:15;24.40;95.40
36800;DHT22;22752;51.960;5.886;2022-07-29T12:32:46;24.50;95.10
36800;DHT22;22752;51.960;5.886;2022-07-29T12:35:13;24.50;95.20
36800;DHT22;22752;51.960;5.886;2022-07-29T12:37:40;24.60;95.20
36800;DHT22;22752;51.960;5.886;2022-07-29T12:40:08;24.60;95.00
36800;DHT22;22752;51.960;5.886;2022-07-29T12:42:34;24.60;94.90
36800;DHT22;22752;51.960;5.886;2022-07-29T12:45:00;24.60;94.70
36800;DHT22;22752;51.960;5.886;2022-07-29T12:47:27;24.50;94.20
36800;DHT22;22752;51.960;5.886;2022-07-29T12:50:12;24.30;94.20
36800;DHT22;22752;51.960;5.886;2022-07-29T12:52:40;24.10;94.60
36800;DHT22;22752;51.960;5.886;2022-07-29T12:55:06;23.90;95.20
36800;DHT22;22752;51.960;5.886;2022-07-29T12:57:43;23.80;94.70
36800;DHT22;22752;51.960;5.886;2022-07-29T13:00:12;23.70;94.90
36800;DHT22;22752;51.960;5.886;2022-07-29T13:02:39;23.70;94.80
36800;DHT22;22752;51.960;5.886;2022-07-29T13:05:07;23.90;94.70
36800;DHT22;22752;51.960;5.886;2022-07-29T13:07:34;24.00;94.80
36800;DHT22;22752;51.960;5.886;2022-07-29T13:10:17;24.00;94.80
36800;DHT22;22752;51.960;5.886;2022-07-29T13:13:11;24.30;94.40
36800;DHT22;22752;51.960;5.886;2022-07-29T13:15:42;24.60;93.70
36800;DHT22;22752;51.960;5.886;2022-07-29T13:18:31;24.70;93.50
36800;DHT22;22752;51.960;5.886;2022-07-29T13:20:57;24.90;93.40
36800;DHT22;22752;51.960;5.886;2022-07-29T13:23:35;25.10;93.50
36800;DHT22;22752;51.960;5.886;2022-07-29T13:26:11;25.20;93.50
36800;DHT22;22752;51.960;5.886;2022-07-29T13:28:37;25.20;93.10
36800;DHT22;22752;51.960;5.886;2022-07-29T13:31:03;25.30;93.10
36800;DHT22;22752;51.960;5.886;2022-07-29T13:33:30;25.40;93.00
36800;DHT22;22752;51.960;5.886;2022-07-29T13:35:55;25.60;93.00
36800;DHT22;22752;51.960;5.886;2022-07-29T13:38:21;25.70;92.80
36800;DHT22;22752;51.960;5.886;2022-07-29T13:40:47;25.70;92.30
36800;DHT22;22752;51.960;5.886;2022-07-29T13:43:13;25.60;92.20
36800;DHT22;22752;51.960;5.886;2022-07-29T13:45:38;25.40;91.80
36800;DHT22;22752;51.960;5.886;2022-07-29T13:48:04;25.30;92.20
36800;DHT22;22752;51.960;5.886;2022-07-29T13:50:31;25.30;92.70
36800;DHT22;22752;51.960;5.886;2022-07-29T13:52:57;25.30;92.30
36800;DHT22;22752;51.960;5.886;2022-07-29T13:55:24;25.40;91.80
36800;DHT22;22752;51.960;5.886;2022-07-29T13:57:49;25.40;92.10
36800;DHT22;22752;51.960;5.886;2022-07-29T14:00:15;25.50;92.00
36800;DHT22;22752;51.960;5.886;2022-07-29T14:02:42;25.60;92.10
36800;DHT22;22752;51.960;5.886;2022-07-29T14:05:08;25.80;91.50
36800;DHT22;22752;51.960;5.886;2022-07-29T14:07:35;26.00;91.20
36800;DHT22;22752;51.960;5.886;2022-07-29T14:10:01;26.00;90.90
36800;DHT22;22752;51.960;5.886;2022-07-29T14:12:27;25.90;91.10
36800;DHT22;22752;51.960;5.886;2022-07-29T14:14:53;25.80;91.00
36800;DHT22;22752;51.960;5.886;2022-07-29T14:17:18;25.90;91.30
36800;DHT22;22752;51.960;5.886;2022-07-29T14:19:44;25.90;91.10
36800;DHT22;22752;51.960;5.886;2022-07-29T14:22:10;25.80;91.10
36800;DHT22;22752;51.960;5.886;2022-07-29T14:24:36;25.70;91.20
36800;DHT22;22752;51.960;5.886;2022-07-29T14:27:02;25.60;90.80
36800;DHT22;22752;51.960;5.886;2022-07-29T14:29:27;25.50;90.90
36800;DHT22;22752;51.960;5.886;2022-07-29T14:31:53;25.60;90.90
36800;DHT22;22752;51.960;5.886;2022-07-29T14:34:18;25.90;90.80
36800;DHT22;22752;51.960;5.886;2022-07-29T14:36:44;26.10;90.50
36800;DHT22;22752;51.960;5.886;2022-07-29T14:39:10;26.20;90.50
36800;DHT22;22752;51.960;5.886;2022-07-29T14:41:36;26.10;90.50
36800;DHT22;22752;51.960;5.886;2022-07-29T14:44:01;26.20;90.30
36800;DHT22;22752;51.960;5.886;2022-07-29T14:46:27;26.20;90.20
36800;DHT22;22752;51.960;5.886;2022-07-29T14:48:53;26.00;90.30
36800;DHT22;22752;51.960;5.886;2022-07-29T14:51:19;25.80;90.30
36800;DHT22;22752;51.960;5.886;2022-07-29T14:53:44;25.50;90.40
36800;DHT22;22752;51.960;5.886;2022-07-29T14:56:10;25.30;90.80
36800;DHT22;22752;51.960;5.886;2022-07-29T14:58:36;25.10;90.80
36800;DHT22;22752;51.960;5.886;2022-07-29T15:01:02;25.10;91.20
36800;DHT22;22752;51.960;5.886;2022-07-29T15:03:27;25.00;91.40
36800;DHT22;22752;51.960;5.886;2022-07-29T15:05:53;24.90;91.70
36800;DHT22;22752;51.960;5.886;2022-07-29T15:08:19;24.90;91.70
36800;DHT22;22752;51.960;5.886;2022-07-29T15:10:45;24.90;92.20
36800;DHT22;22752;51.960;5.886;2022-07-29T15:13:11;24.90;92.30
36800;DHT22;22752;51.960;5.886;2022-07-29T15:15:36;24.90;91.80
36800;DHT22;22752;51.960;5.886;2022-07-29T15:18:02;24.90;91.90
36800;DHT22;22752;51.960;5.886;2022-07-29T15:20:28;24.90;92.10
36800;DHT22;22752;51.960;5.886;2022-07-29T15:22:54;25.00;92.40
36800;DHT22;22752;51.960;5.886;2022-07-29T15:25:24;25.00;92.80
36800;DHT22;22752;51.960;5.886;2022-07-29T15:27:50;24.90;93.00
36800;DHT22;22752;51.960;5.886;2022-07-29T15:30:16;24.90;93.20
36800;DHT22;22752;51.960;5.886;2022-07-29T15:32:43;24.90;93.00
36800;DHT22;22752;51.960;5.886;2022-07-29T15:35:09;24.90;92.90
36800;DHT22;22752;51.960;5.886;2022-07-29T15:37:36;24.90;93.10
36800;DHT22;22752;51.960;5.886;2022-07-29T15:40:02;24.90;93.30
36800;DHT22;22752;51.960;5.886;2022-07-29T15:42:28;24.90;92.60
36800;DHT22;22752;51.960;5.886;2022-07-29T15:44:54;24.90;92.80
36800;DHT22;22752;51.960;5.886;2022-07-29T15:47:21;24.90;92.90
36800;DHT22;22752;51.960;5.886;2022-07-29T15:49:46;24.80;93.40
36800;DHT22;22752;51.960;5.886;2022-07-29T15:52:12;24.70;93.80
36800;DHT22;22752;51.960;5.886;2022-07-29T15:54:39;24.60;93.90
36800;DHT22;22752;51.960;5.886;2022-07-29T15:57:07;24.50;93.90
36800;DHT22;22752;51.960;5.886;2022-07-29T15:59:33;24.40;94.10
36800;DHT22;22752;51.960;5.886;2022-07-29T16:01:59;24.30;94.50
36800;DHT22;22752;51.960;5.886;2022-07-29T16:04:25;24.10;94.70
36800;DHT22;22752;51.960;5.886;2022-07-29T16:06:52;24.00;94.70
36800;DHT22;22752;51.960;5.886;2022-07-29T16:09:18;23.90;94.40